Time;durP1;ratioP1;P1;durP2;ratioP2;P2;SDS_P1;SDS_P2;PMS_P1;PMS_P2;Temp;Humidity;BMP_temperature;BMP_pressure;BME280_temperature;BME280_humidity;BME280_pressure;Samples;Min_cycle;Max_cycle;Signal;HPM_P1;HPM_P2
2021/10/11 08:49:07;;;;;;;0.10;0.10;;;11.80;99.90;;;;;;6324616;22;20024;-96
2021/10/11 08:51:37;;;;;;;0.00;0.00;;;11.80;99.90;;;;;;6265252;23;20020;-96
2021/10/11 08:54:08;;;;;;;0.00;0.00;;;11.90;99.90;;;;;;6239792;23;20019;-94
2021/10/11 08:56:34;;;;;;;0.00;0.00;;;12.00;99.90;;;;;;6241678;23;20016;-94
2021/10/11 08:59:04;;;;;;;0.00;0.00;;;12.10;99.90;;;;;;6240291;23;20145;-94
2021/10/11 09:01:32;;;;;;;0.00;0.00;;;12.20;99.90;;;;;;6216008;23;20463;-94
2021/10/11 09:04:17;;;;;;;0.00;0.00;;;12.30;99.90;;;;;;6242336;23;20013;-94
2021/10/11 09:07:04;;;;;;;0.00;0.00;;;12.40;99.90;;;;;;6240911;23;20016;-96
2021/10/11 09:09:32;;;;;;;0.00;0.00;;;12.50;99.90;;;;;;6240097;23;20039;-96
2021/10/11 09:11:59;;;;;;;0.03;0.03;;;12.60;99.90;;;;;;6240110;23;20064;-95
2021/10/11 09:14:26;;;;;;;0.00;0.00;;;12.60;99.90;;;;;;6240557;23;20087;-96
2021/10/11 09:17:00;;;;;;;0.00;0.00;;;12.60;99.90;;;;;;6240610;23;20008;-96
2021/10/11 09:19:36;;;;;;;0.00;0.00;;;12.60;99.90;;;;;;6216902;23;20102;-96
2021/10/11 09:22:03;;;;;;;;;;;12.60;99.90;;;;;;6215718;23;20496;-96
2021/10/11 09:24:30;;;;;;;0.00;0.00;;;12.70;99.90;;;;;;6239845;23;20279;-96
2021/10/11 09:27:02;;;;;;;0.00;0.00;;;12.70;99.90;;;;;;6240266;23;20142;-95
2021/10/11 09:29:41;;;;;;;0.00;0.00;;;12.70;99.90;;;;;;6241124;23;20071;-96
2021/10/11 09:32:15;;;;;;;0.00;0.00;;;12.60;99.90;;;;;;6214785;23;20009;-94
2021/10/11 09:34:48;;;;;;;0.00;0.00;;;12.70;99.90;;;;;;6216757;23;20012;-96
2021/10/11 09:37:15;;;;;;;0.00;0.00;;;12.70;99.90;;;;;;6240241;23;20008;-96
2021/10/11 09:39:45;;;;;;;0.00;0.00;;;13.10;99.90;;;;;;6190876;23;20081;-94
2021/10/11 09:42:14;;;;;;;0.00;0.00;;;12.70;99.90;;;;;;6239726;23;20095;-95
2021/10/11 09:44:53;;;;;;;0.00;0.00;;;12.70;99.90;;;;;;6239558;23;20012;-96
2021/10/11 09:47:40;;;;;;;0.00;0.00;;;12.60;99.90;;;;;;6239136;23;20047;-95
2021/10/11 09:50:09;;;;;;;0.00;0.00;;;12.70;99.90;;;;;;6253188;22;20016;-95
2021/10/11 09:52:37;;;;;;;0.00;0.00;;;12.90;99.90;;;;;;6295195;22;20068;-94
2021/10/11 09:55:06;;;;;;;0.00;0.00;;;13.00;99.90;;;;;;6295322;22;20464;-95
2021/10/11 09:57:34;;;;;;;0.00;0.00;;;13.20;99.90;;;;;;6295333;22;20087;-95
2021/10/11 10:00:10;;;;;;;0.00;0.00;;;13.30;99.90;;;;;;6294253;22;20019;-94
2021/10/11 10:02:38;;;;;;;0.00;0.00;;;13.30;99.90;;;;;;6298323;22;20018;-95
2021/10/11 10:05:11;;;;;;;0.00;0.00;;;13.30;99.90;;;;;;6294037;22;20119;-95
2021/10/11 10:07:43;;;;;;;0.00;0.00;;;13.30;99.90;;;;;;6295610;22;20354;-95
2021/10/11 10:10:29;;;;;;;0.10;0.10;;;13.50;99.90;;;;;;6295668;22;20015;-94
2021/10/11 10:16:59;;;;;;;0.00;0.00;;;13.60;99.90;;;;;;6322383;22;20505;-94
2021/10/11 10:19:40;;;;;;;0.00;0.00;;;13.90;99.90;;;;;;6295314;22;20043;-95
2021/10/11 10:22:10;;;;;;;0.00;0.00;;;13.90;99.90;;;;;;6300211;22;20011;-96
2021/10/11 10:24:37;;;;;;;0.00;0.00;;;14.00;99.90;;;;;;6297605;22;20030;-95
2021/10/11 10:27:17;;;;;;;0.00;0.00;;;14.10;99.90;;;;;;6297561;22;20008;-95
2021/10/11 10:29:49;;;;;;;0.10;0.10;;;14.10;99.90;;;;;;6297245;22;20065;-95
2021/10/11 10:32:22;;;;;;;0.00;0.00;;;14.20;99.90;;;;;;6296205;22;20066;-95
2021/10/11 10:35:07;;;;;;;0.00;0.00;;;14.20;99.90;;;;;;6297428;22;20047;-95
2021/10/11 10:37:38;;;;;;;0.00;0.00;;;14.50;99.90;;;;;;6301072;22;20015;-96
2021/10/11 10:40:19;;;;;;;0.00;0.00;;;14.30;99.90;;;;;;6301334;22;20020;-95
2021/10/11 10:43:09;;;;;;;0.00;0.00;;;14.40;99.90;;;;;;6301393;22;20108;-96
2021/10/11 11:21:39;;;;;;;0.00;0.00;;;13.70;99.90;;;;;;6289724;22;20021;-96
2021/10/11 11:24:08;;;;;;;0.00;0.00;;;13.80;99.90;;;;;;6214304;23;20056;-95
2021/10/11 11:26:46;;;;;;;0.00;0.00;;;13.90;99.90;;;;;;6238816;23;20090;-96
2021/10/11 11:29:16;;;;;;;0.00;0.00;;;13.90;99.90;;;;;;6239715;23;20008;-96
2021/10/11 11:31:50;;;;;;;0.00;0.00;;;13.90;99.90;;;;;;6238687;23;20012;-95
2021/10/11 11:34:17;;;;;;;0.00;0.00;;;13.90;99.90;;;;;;6238873;23;20318;-95
2021/10/11 11:36:55;;;;;;;0.00;0.00;;;13.90;99.90;;;;;;6238045;23;20019;-95
2021/10/11 11:39:26;;;;;;;0.00;0.00;;;14.00;99.90;;;;;;6238389;23;20012;-95
2021/10/11 11:41:55;;;;;;;0.00;0.00;;;14.00;99.90;;;;;;6238572;23;20016;-94
2021/10/11 11:44:27;;;;;;;0.00;0.00;;;14.00;99.90;;;;;;6238505;23;20023;-96
2021/10/11 11:47:03;;;;;;;0.00;0.00;;;14.00;99.90;;;;;;6238170;23;20016;-96
2021/10/11 11:49:30;;;;;;;0.00;0.00;;;14.00;99.90;;;;;;6238217;23;20043;-95
2021/10/11 11:52:14;;;;;;;0.00;0.00;;;13.90;99.90;;;;;;6238141;23;20051;-95
2021/10/11 11:54:57;;;;;;;0.00;0.00;;;13.90;99.90;;;;;;6237628;23;20016;-95
2021/10/11 11:57:25;;;;;;;0.00;0.00;;;14.00;99.90;;;;;;6238877;23;20074;-94
2021/10/11 11:59:55;;;;;;;0.00;0.00;;;14.00;99.90;;;;;;6237667;23;20012;-95
2021/10/11 12:02:22;;;;;;;0.03;0.03;;;13.90;99.90;;;;;;6213312;23;20023;-95
2021/10/11 12:04:50;;;;;;;0.00;0.00;;;14.10;99.90;;;;;;6237007;23;20016;-95
2021/10/11 12:07:17;;;;;;;0.00;0.00;;;14.30;99.90;;;;;;6237559;23;20456;-94
2021/10/11 12:09:48;;;;;;;0.03;0.03;;;14.40;99.90;;;;;;6212506;23;20023;-95
2021/10/11 12:12:15;;;;;;;0.00;0.00;;;14.50;99.90;;;;;;6208291;23;20389;-95
2021/10/11 12:14:49;;;;;;;0.00;0.00;;;14.70;99.90;;;;;;6232170;23;20009;-95
2021/10/11 12:17:16;;;;;;;0.00;0.00;;;14.80;99.90;;;;;;6232475;23;20087;-95
2021/10/11 12:19:43;;;;;;;0.00;0.00;;;14.70;99.90;;;;;;6231892;23;20016;-95
2021/10/11 12:22:10;;;;;;;0.00;0.00;;;14.70;99.90;;;;;;6207006;23;20088;-95
2021/10/11 12:24:37;;;;;;;0.00;0.00;;;14.40;99.90;;;;;;6232177;23;20102;-95
2021/10/11 12:27:06;;;;;;;0.00;0.00;;;14.30;99.90;;;;;;6232965;23;20013;-95
2021/10/11 12:29:36;;;;;;;0.00;0.00;;;14.20;99.90;;;;;;6233312;23;20024;-95
2021/10/11 12:32:11;;;;;;;0.00;0.00;;;14.10;99.90;;;;;;6232667;23;20040;-95
2021/10/11 12:34:45;;;;;;;0.00;0.00;;;13.90;99.90;;;;;;6209955;23;20106;-94
2021/10/11 12:37:14;;;;;;;0.28;0.20;;;14.00;99.90;;;;;;6233197;23;20020;-94
2021/10/11 12:39:45;;;;;;;0.00;0.00;;;14.00;99.90;;;;;;6207945;23;20066;-95
2021/10/11 12:42:21;;;;;;;0.00;0.00;;;13.80;99.90;;;;;;6233134;23;20013;-95
2021/10/11 12:44:54;;;;;;;0.00;0.00;;;13.80;99.90;;;;;;6232974;23;20032;-94
2021/10/11 12:47:32;;;;;;;0.00;0.00;;;13.70;99.90;;;;;;6232247;23;20009;-95
2021/10/11 12:50:07;;;;;;;0.00;0.00;;;13.70;99.90;;;;;;6232267;23;20338;-94
2021/10/11 12:52:39;;;;;;;0.00;0.00;;;13.70;99.90;;;;;;6232087;23;20042;-95
2021/10/11 12:55:08;;;;;;;0.00;0.00;;;13.70;99.90;;;;;;6232187;23;20016;-96
2021/10/11 12:57:40;;;;;;;0.00;0.00;;;13.80;99.90;;;;;;6235395;23;20012;-96
2021/10/11 13:00:09;;;;;;;0.00;0.00;;;13.60;99.90;;;;;;6235757;23;20017;-96
2021/10/11 13:02:38;;;;;;;0.00;0.00;;;13.60;99.90;;;;;;6232532;23;20075;-96
2021/10/11 13:05:07;;;;;;;0.00;0.00;;;13.40;99.90;;;;;;6232441;23;20082;-96
2021/10/11 13:07:35;;;;;;;0.00;0.00;;;13.30;99.90;;;;;;6232406;23;20071;-96
2021/10/11 13:10:06;;;;;;;0.00;0.00;;;13.20;99.90;;;;;;6233215;23;20075;-96
2021/10/11 13:12:33;;;;;;;0.35;0.13;;;13.20;99.90;;;;;;6207906;23;20071;-96
2021/10/11 13:15:06;;;;;;;0.00;0.00;;;13.20;99.90;;;;;;6212142;23;20123;-95
2021/10/11 13:17:39;;;;;;;0.00;0.00;;;13.20;99.90;;;;;;6233054;23;20013;-96
2021/10/11 13:20:07;;;;;;;0.00;0.00;;;13.40;99.90;;;;;;6235233;23;20012;-96
2021/10/11 13:22:36;;;;;;;0.00;0.00;;;13.30;99.90;;;;;;6237201;23;20540;-96
2021/10/11 13:25:06;;;;;;;0.00;0.00;;;13.30;99.90;;;;;;6242974;23;20020;-96
2021/10/11 13:27:36;;;;;;;0.00;0.00;;;13.30;99.90;;;;;;6213244;23;20524;-95
2021/10/11 13:30:50;;;;;;;0.00;0.00;;;13.20;99.90;;;;;;6211703;23;20016;-95
2021/10/11 16:01:17;;;;;;;;;;;11.80;99.90;;;;;;6277548;22;20046;-95
2021/10/11 16:12:48;;;;;;;0.00;0.00;;;11.60;99.90;;;;;;6334032;22;20030;-96
